Hakalau, Hawaii
Current Conditions -  °F | °C
As of 7:53 AM on Friday 28 Nov 2014 (Local Time) from PHTO Reporting Station
Overcast Overcast  
Wind Chill: 75°   Ceiling: 4000
Heat Index: 75°   Visibility: 10mi
Dew Point: 68°   Wind: 9mph
Humidity: 79%   Direction: 60°ENE
Pressure: 30.05"   Gusts: NA
Location:  19.9°N, 155.13°W
Report Text: PHTO 281753Z 06008KT 10SM FEW022 SCT030 OVC040 24/20 A3005 RMK AO2 SLP175 60015 T02390200 10239 20211 53009 $
Loading
Personal Weather Stations






























Interactive Weather Map New forecast layout! Learn more

10-Day Weather Forecast

Advertisements
Track Severe Weather on mobile